createdAt,value
2023-05-08T00:02:13.871Z,26.81
2023-05-08T00:06:15.227Z,26.74
2023-05-08T00:10:16.664Z,26.68
2023-05-08T00:14:18.251Z,26.76
2023-05-08T00:18:19.547Z,26.47
2023-05-08T00:22:21.487Z,26.23
2023-05-08T00:26:23.027Z,26.43
2023-05-08T00:30:24.297Z,26.57
2023-05-08T00:34:25.999Z,26.51
2023-05-08T00:38:27.583Z,26.55
2023-05-08T00:42:28.964Z,26.59
2023-05-08T00:46:31.179Z,26.62
2023-05-08T00:50:32.889Z,26.53
2023-05-08T00:54:38.702Z,26.19
2023-05-08T00:58:41.274Z,25.88
2023-05-08T01:02:42.999Z,26.00
2023-05-08T01:06:44.351Z,25.87
2023-05-08T01:10:55.569Z,25.88
2023-05-08T01:15:24.587Z,26.19
2023-05-08T01:19:35.200Z,26.12
2023-05-08T01:23:51.433Z,25.77
2023-05-08T01:28:18.810Z,26.02
2023-05-08T01:32:29.882Z,26.01
2023-05-08T01:36:39.859Z,26.10
2023-05-08T01:40:52.848Z,25.99
2023-05-08T01:44:59.817Z,25.22
2023-05-08T01:49:10.139Z,26.03
2023-05-08T01:53:22.892Z,26.12
2023-05-08T01:57:28.222Z,25.92
2023-05-08T02:01:33.884Z,25.70
2023-05-08T02:05:37.942Z,25.95
2023-05-08T02:09:41.524Z,25.85
2023-05-08T02:13:46.671Z,25.99
2023-05-08T02:17:50.649Z,25.87
2023-05-08T02:21:53.078Z,25.72
2023-05-08T02:25:56.333Z,25.98
2023-05-08T02:29:58.990Z,25.85
2023-05-08T02:34:01.420Z,25.89
2023-05-08T02:38:04.449Z,25.75
2023-05-08T02:42:05.943Z,25.65
2023-05-08T02:46:24.799Z,25.83
2023-05-08T02:50:42.825Z,25.28
2023-05-08T02:54:54.874Z,25.78
2023-05-08T02:59:10.018Z,25.79
2023-05-08T03:03:25.686Z,25.79
2023-05-08T03:07:29.533Z,25.82
2023-05-08T03:11:39.294Z,25.71
2023-05-08T03:15:47.013Z,25.63
2023-05-08T03:19:55.582Z,25.82
2023-05-08T03:24:00.512Z,25.85
2023-05-08T03:28:05.035Z,25.85
2023-05-08T03:32:07.824Z,25.82
2023-05-08T03:36:09.595Z,25.79
2023-05-08T03:40:12.082Z,25.79
2023-05-08T03:44:14.232Z,25.39
2023-05-08T03:48:16.500Z,25.50
2023-05-08T03:52:18.004Z,25.56
2023-05-08T03:56:19.344Z,25.47
2023-05-08T04:00:27.413Z,25.52
2023-05-08T04:04:40.081Z,25.36
2023-05-08T04:08:48.065Z,25.60
2023-05-08T04:12:55.528Z,25.62
2023-05-08T04:17:02.822Z,25.16
2023-05-08T04:21:09.804Z,25.22
2023-05-08T04:25:13.180Z,25.64
2023-05-08T04:29:14.942Z,25.70
2023-05-08T04:33:18.446Z,25.24
2023-05-08T04:37:27.589Z,25.27
2023-05-08T04:41:28.980Z,25.24
2023-05-08T04:45:30.548Z,25.17
2023-05-08T04:49:31.879Z,25.17
2023-05-08T04:53:33.233Z,25.30
2023-05-08T04:57:34.500Z,25.27
2023-05-08T05:01:36.308Z,25.36
2023-05-08T05:05:38.891Z,25.71
2023-05-08T05:09:40.496Z,25.38
2023-05-08T05:13:41.815Z,24.98
2023-05-08T05:17:44.929Z,25.29
2023-05-08T05:21:46.398Z,25.60
2023-05-08T05:25:47.772Z,25.65
2023-05-08T05:29:49.186Z,25.86
2023-05-08T05:33:50.613Z,25.83
2023-05-08T05:37:52.201Z,25.87
2023-05-08T05:41:54.632Z,26.02
2023-05-08T05:45:56.202Z,26.28
2023-05-08T05:49:57.938Z,26.28
2023-05-08T05:53:59.258Z,26.16
2023-05-08T05:58:00.748Z,26.61
2023-05-08T06:02:02.445Z,26.21
2023-05-08T06:06:04.100Z,26.69
2023-05-08T06:10:06.217Z,26.78
2023-05-08T06:14:07.620Z,25.97
2023-05-08T06:18:09.024Z,26.49
2023-05-08T06:22:10.525Z,26.43
2023-05-08T06:26:11.917Z,26.78
2023-05-08T06:30:13.462Z,26.45
2023-05-08T06:34:14.843Z,26.84
2023-05-08T06:38:16.339Z,26.54
2023-05-08T06:42:17.686Z,27.37
2023-05-08T06:46:19.378Z,27.44
2023-05-08T06:50:20.814Z,26.13
2023-05-08T06:54:22.290Z,27.03
2023-05-08T06:58:23.622Z,27.80
2023-05-08T07:02:25.057Z,26.23
2023-05-08T07:06:27.567Z,27.38
2023-05-08T07:10:29.056Z,26.81
2023-05-08T07:14:30.400Z,27.28
2023-05-08T07:18:31.727Z,27.70
2023-05-08T07:22:33.070Z,28.17
2023-05-08T07:26:34.485Z,27.03
2023-05-08T07:30:36.171Z,27.07
2023-05-08T07:34:37.661Z,26.82
2023-05-08T07:38:39.359Z,27.02
2023-05-08T07:42:42.048Z,26.86
2023-05-08T07:46:43.417Z,27.52
2023-05-08T07:50:44.762Z,27.62
2023-05-08T07:54:46.122Z,27.50
2023-05-08T07:58:47.747Z,28.52
2023-05-08T08:02:49.121Z,28.92
2023-05-08T08:06:50.600Z,28.95
2023-05-08T08:10:52.728Z,29.00
2023-05-08T08:14:54.503Z,28.99
2023-05-08T08:18:56.005Z,28.68
2023-05-08T08:22:57.938Z,28.76
2023-05-08T08:26:59.223Z,29.95
2023-05-08T08:31:00.617Z,30.63
2023-05-08T08:35:02.314Z,29.44
2023-05-08T08:39:03.766Z,30.67
2023-05-08T08:43:05.865Z,30.48
2023-05-08T08:47:12.834Z,28.97
2023-05-08T08:51:28.856Z,29.00
2023-05-08T08:55:32.690Z,29.76
2023-05-08T08:59:37.993Z,28.83
2023-05-08T09:03:39.656Z,28.86
2023-05-08T09:07:43.763Z,28.34
2023-05-08T09:11:46.554Z,28.13
2023-05-08T09:15:50.266Z,28.62
2023-05-08T09:19:52.393Z,28.86
2023-05-08T09:23:56.824Z,28.46
2023-05-08T09:28:15.890Z,28.47
2023-05-08T09:32:18.598Z,28.63
2023-05-08T09:36:29.082Z,28.49
2023-05-08T09:40:45.126Z,28.58
2023-05-08T09:45:17.986Z,28.32
2023-05-08T09:49:23.006Z,28.54
2023-05-08T09:53:31.269Z,29.17
2023-05-08T09:57:34.398Z,28.46
2023-05-08T10:01:36.877Z,28.71
2023-05-08T10:05:38.276Z,27.94
2023-05-08T10:09:50.432Z,28.66
2023-05-08T10:13:52.142Z,28.26
2023-05-08T10:18:08.018Z,27.08
2023-05-08T10:22:12.080Z,27.81
2023-05-08T10:26:16.279Z,28.26
2023-05-08T10:30:23.538Z,28.32
2023-05-08T10:34:27.302Z,27.65
2023-05-08T10:38:31.138Z,28.12
2023-05-08T10:42:37.412Z,28.33
2023-05-08T10:46:52.943Z,28.61
2023-05-08T10:51:03.187Z,29.06
2023-05-08T10:55:21.943Z,28.60
2023-05-08T10:59:23.791Z,28.98
2023-05-08T11:03:33.133Z,28.80
2023-05-08T11:07:53.851Z,29.16
2023-05-08T11:12:08.484Z,29.43
2023-05-08T11:16:11.121Z,28.85
2023-05-08T11:20:12.855Z,28.34
2023-05-08T11:24:15.853Z,28.85
2023-05-08T11:28:17.273Z,27.71
2023-05-08T11:32:18.682Z,28.48
2023-05-08T11:36:22.688Z,28.41
2023-05-08T11:40:48.916Z,28.79
2023-05-08T11:45:05.016Z,29.66
2023-05-08T11:49:11.247Z,28.91
2023-05-08T11:53:13.064Z,28.52
2023-05-08T11:57:17.296Z,29.24
2023-05-08T12:01:21.566Z,28.91
2023-05-08T12:05:27.506Z,28.75
2023-05-08T12:09:29.118Z,29.10
2023-05-08T12:13:30.840Z,28.35
2023-05-08T12:17:32.325Z,30.02
2023-05-08T12:21:33.800Z,29.60
2023-05-08T12:25:37.202Z,29.36
2023-05-08T12:29:38.700Z,29.79
2023-05-08T12:33:40.358Z,30.29
2023-05-08T12:37:41.829Z,30.69
2023-05-08T12:41:50.954Z,29.46
2023-05-08T12:45:52.681Z,29.65
2023-05-08T12:49:58.040Z,28.15
2023-05-08T12:53:59.411Z,29.80
2023-05-08T12:58:00.709Z,29.04
2023-05-08T13:02:02.111Z,27.13
2023-05-08T13:06:03.746Z,28.68
2023-05-08T13:10:05.692Z,29.80
2023-05-08T13:14:07.318Z,29.11
2023-05-08T13:18:08.994Z,28.95
2023-05-08T13:22:10.345Z,29.02
2023-05-08T13:26:11.655Z,27.72
2023-05-08T13:30:15.766Z,27.78
2023-05-08T13:34:17.195Z,28.17
2023-05-08T13:38:18.527Z,28.28
2023-05-08T13:42:19.914Z,28.42
2023-05-08T13:46:21.351Z,26.79
2023-05-08T13:50:22.889Z,27.79
2023-05-08T13:54:24.237Z,28.89
2023-05-08T13:58:25.778Z,28.59
2023-05-08T14:02:27.746Z,28.99
2023-05-08T14:06:31.047Z,29.27
2023-05-08T14:10:32.430Z,29.38
2023-05-08T14:14:34.478Z,29.33
2023-05-08T14:18:36.093Z,29.72
2023-05-08T14:22:37.425Z,29.39
2023-05-08T14:26:39.557Z,28.92
2023-05-08T14:30:41.160Z,30.10
2023-05-08T14:34:42.627Z,30.36
2023-05-08T14:38:43.984Z,29.53
2023-05-08T14:42:45.282Z,29.42
2023-05-08T14:46:46.907Z,30.12
2023-05-08T14:50:48.343Z,30.55
2023-05-08T14:54:53.060Z,30.57
2023-05-08T14:58:55.408Z,30.69
2023-05-08T15:02:57.007Z,30.12
2023-05-08T15:06:58.466Z,30.50
2023-05-08T15:10:59.850Z,30.65
2023-05-08T15:15:03.549Z,30.75
2023-05-08T15:19:06.020Z,30.62
2023-05-08T15:23:07.662Z,30.81
2023-05-08T15:27:10.007Z,31.05
2023-05-08T15:31:11.339Z,30.59
2023-05-08T15:35:13.152Z,30.44
2023-05-08T15:39:14.972Z,30.26
2023-05-08T15:43:16.350Z,30.07
2023-05-08T15:47:19.368Z,29.47
2023-05-08T15:51:20.802Z,29.59
2023-05-08T15:55:23.397Z,30.08
2023-05-08T15:59:25.141Z,29.41
2023-05-08T16:03:26.587Z,29.33
2023-05-08T16:07:28.085Z,30.28
2023-05-08T16:11:32.717Z,30.09
2023-05-08T16:15:34.161Z,30.32
2023-05-08T16:19:38.876Z,30.46
2023-05-08T16:23:40.289Z,30.39
2023-05-08T16:27:41.645Z,29.97
2023-05-08T16:31:43.314Z,30.22
2023-05-08T16:35:44.858Z,30.64
2023-05-08T16:39:46.228Z,30.05
2023-05-08T16:43:47.633Z,30.18
2023-05-08T16:47:49.113Z,29.82
2023-05-08T16:51:50.575Z,30.47
2023-05-08T16:55:51.935Z,30.36
2023-05-08T16:59:53.408Z,30.64
2023-05-08T17:03:54.760Z,30.32
2023-05-08T17:07:56.187Z,29.90
2023-05-08T17:11:58.908Z,29.93
2023-05-08T17:16:00.624Z,30.42
2023-05-08T17:20:02.019Z,30.55
2023-05-08T17:24:03.595Z,30.40
2023-05-08T17:28:05.231Z,30.08
2023-05-08T17:32:06.654Z,30.10
2023-05-08T17:36:08.359Z,30.17
2023-05-08T17:40:10.540Z,29.64
2023-05-08T17:44:11.951Z,29.89
2023-05-08T17:48:14.021Z,30.14
2023-05-08T17:52:15.484Z,30.01
2023-05-08T17:56:20.392Z,30.08
2023-05-08T18:00:21.923Z,30.19
2023-05-08T18:04:23.351Z,29.69
2023-05-08T18:08:24.793Z,29.61
2023-05-08T18:12:26.179Z,29.84
2023-05-08T18:16:27.776Z,29.73
2023-05-08T18:20:29.227Z,29.44
2023-05-08T18:24:30.791Z,29.61
2023-05-08T18:28:32.368Z,29.71
2023-05-08T18:32:38.072Z,29.68
2023-05-08T18:36:39.635Z,29.79
2023-05-08T18:40:41.164Z,29.68
2023-05-08T18:44:42.493Z,29.72
2023-05-08T18:48:43.899Z,29.60
2023-05-08T18:52:45.540Z,29.49
2023-05-08T18:56:46.869Z,29.41
2023-05-08T19:00:48.494Z,29.09
2023-05-08T19:04:59.223Z,29.24
2023-05-08T19:09:00.565Z,29.18
2023-05-08T19:13:02.237Z,28.93
2023-05-08T19:17:03.764Z,29.06
2023-05-08T19:21:05.263Z,28.53
2023-05-08T19:25:07.030Z,28.92
2023-05-08T19:29:08.373Z,28.97
2023-05-08T19:33:09.992Z,28.84
2023-05-08T19:37:11.300Z,28.72
2023-05-08T19:41:12.745Z,28.36
2023-05-08T19:45:16.155Z,28.61
2023-05-08T19:49:17.571Z,28.62
2023-05-08T19:53:18.889Z,28.26
2023-05-08T19:57:20.503Z,28.39
2023-05-08T20:01:21.840Z,28.22
2023-05-08T20:05:23.488Z,28.43
2023-05-08T20:09:24.894Z,28.33
2023-05-08T20:13:26.275Z,28.40
2023-05-08T20:17:27.750Z,28.28
2023-05-08T20:21:33.771Z,28.10
2023-05-08T20:25:35.279Z,28.27
2023-05-08T20:29:36.649Z,28.10
2023-05-08T20:33:37.978Z,27.82
2023-05-08T20:37:43.951Z,27.81
2023-05-08T20:41:45.251Z,27.39
2023-05-08T20:45:46.694Z,27.75
2023-05-08T20:49:48.053Z,27.82
2023-05-08T20:53:49.357Z,27.89
2023-05-08T20:57:50.718Z,27.79
2023-05-08T21:01:52.087Z,27.94
2023-05-08T21:05:54.869Z,27.55
2023-05-08T21:09:56.234Z,27.60
2023-05-08T21:13:57.600Z,27.58
2023-05-08T21:17:59.024Z,27.55
2023-05-08T21:22:00.504Z,27.44
2023-05-08T21:26:01.886Z,27.57
2023-05-08T21:30:03.602Z,27.50
2023-05-08T21:34:06.765Z,27.38
2023-05-08T21:38:08.615Z,27.34
2023-05-08T21:42:09.925Z,27.42
2023-05-08T21:46:11.356Z,27.50
2023-05-08T21:50:12.643Z,27.13
2023-05-08T21:54:13.938Z,27.40
2023-05-08T21:58:15.453Z,27.21
2023-05-08T22:02:16.898Z,27.16
2023-05-08T22:06:18.211Z,27.10
2023-05-08T22:10:21.422Z,26.95
2023-05-08T22:14:22.920Z,26.75
2023-05-08T22:18:24.239Z,27.04
2023-05-08T22:22:25.516Z,26.78
2023-05-08T22:26:28.703Z,26.91
2023-05-08T22:30:30.142Z,26.22
2023-05-08T22:34:31.653Z,26.76
2023-05-08T22:38:35.433Z,26.58
2023-05-08T22:42:36.877Z,26.83
2023-05-08T22:46:38.725Z,26.57
2023-05-08T22:50:40.445Z,26.82
2023-05-08T22:54:41.784Z,26.53
2023-05-08T22:58:43.131Z,26.76
2023-05-08T23:02:44.734Z,26.69
2023-05-08T23:06:46.094Z,26.54
2023-05-08T23:10:47.395Z,26.57
2023-05-08T23:14:48.697Z,26.48
2023-05-08T23:18:50.070Z,26.42
2023-05-08T23:22:51.471Z,26.37
2023-05-08T23:26:53.116Z,26.37
2023-05-08T23:30:54.686Z,26.19
2023-05-08T23:34:56.059Z,26.46
2023-05-08T23:38:57.631Z,26.22
2023-05-08T23:42:58.951Z,26.08
2023-05-08T23:47:00.257Z,26.34
2023-05-08T23:51:01.544Z,26.02
2023-05-08T23:55:03.722Z,26.36
2023-05-08T23:59:05.010Z,26.07
